createdAt,value
2022-08-27T09:23:40.798Z,13.15
2022-08-27T09:25:37.107Z,18.30
2022-08-27T09:27:12.634Z,11.52
2022-08-27T09:29:03.515Z,12.02
2022-08-27T09:30:43.782Z,12.80
2022-08-27T09:32:16.898Z,13.43
2022-08-27T09:33:56.258Z,15.55
2022-08-27T09:35:44.985Z,15.93
2022-08-27T09:37:27.608Z,13.85
2022-08-27T09:39:08.778Z,22.83
2022-08-27T09:40:52.396Z,8.57
2022-08-27T09:42:37.732Z,16.45
2022-08-27T09:44:17.841Z,14.30
2022-08-27T09:45:58.118Z,9.82
2022-08-27T09:47:30.531Z,17.17
2022-08-27T09:49:17.557Z,15.32
2022-08-27T09:50:56.518Z,21.17
2022-08-27T09:52:59.747Z,16.25
2022-08-27T09:54:47.299Z,13.07
2022-08-27T09:56:33.925Z,14.85
2022-08-27T09:58:24.213Z,14.55
2022-08-27T09:59:56.883Z,16.17
2022-08-27T10:01:38.781Z,16.33
2022-08-27T10:03:11.866Z,17.60
2022-08-27T10:04:58.799Z,17.05
2022-08-27T10:06:33.016Z,13.30
2022-08-27T10:08:28.379Z,20.42
2022-08-27T10:10:18.853Z,11.05
2022-08-27T10:11:57.953Z,14.30
2022-08-27T10:14:01.397Z,14.95
2022-08-27T10:16:09.903Z,14.95
2022-08-27T10:17:57.280Z,15.77
2022-08-27T10:19:47.035Z,9.70
2022-08-27T10:21:44.739Z,13.40
2022-08-27T10:23:27.878Z,14.43
2022-08-27T10:25:34.787Z,12.77
2022-08-27T10:27:35.258Z,10.38
2022-08-27T10:29:37.067Z,11.55
2022-08-27T10:31:35.800Z,15.05
2022-08-27T10:33:50.506Z,14.13
2022-08-27T10:35:46.855Z,14.52
2022-08-27T10:38:00.800Z,11.25
2022-08-27T10:40:10.276Z,16.65
2022-08-27T10:42:04.901Z,12.18
2022-08-27T10:44:13.380Z,17.80
2022-08-27T10:46:16.184Z,16.83
2022-08-27T10:48:24.449Z,14.73
2022-08-27T10:50:39.855Z,11.50
2022-08-27T10:52:32.632Z,11.27
2022-08-27T10:54:56.806Z,17.17
2022-08-27T10:56:40.809Z,15.23
2022-08-27T10:58:48.053Z,18.92
2022-08-27T11:00:24.693Z,16.00
2022-08-27T11:02:29.621Z,15.30
2022-08-27T11:04:20.527Z,16.02
2022-08-27T11:05:56.055Z,17.65
2022-08-27T11:07:38.403Z,15.70
2022-08-27T11:09:20.690Z,17.17
2022-08-27T11:11:35.059Z,16.30
2022-08-27T11:13:42.620Z,21.88
2022-08-27T11:15:24.742Z,24.95
2022-08-27T11:17:25.137Z,16.02
2022-08-27T11:19:31.693Z,16.95
2022-08-27T11:21:25.502Z,22.90
2022-08-27T11:23:16.873Z,15.27
2022-08-27T11:25:02.359Z,14.90
2022-08-27T11:26:40.503Z,13.40
2022-08-27T11:28:14.746Z,14.02
2022-08-27T11:30:00.136Z,17.27
2022-08-27T11:31:51.057Z,19.40
2022-08-27T11:33:35.073Z,13.35
2022-08-27T11:35:37.687Z,15.35
2022-08-27T11:37:22.755Z,10.32
2022-08-27T11:39:15.140Z,13.68
2022-08-27T11:41:18.996Z,17.73
2022-08-27T11:43:16.142Z,23.63
2022-08-27T11:44:56.242Z,14.43
2022-08-27T11:46:45.563Z,14.98
2022-08-27T11:48:43.918Z,14.07
2022-08-27T11:50:20.462Z,16.15
2022-08-27T11:52:08.155Z,16.27
2022-08-27T11:54:08.067Z,14.38
2022-08-27T11:55:40.375Z,15.57
2022-08-27T11:57:27.925Z,12.30
2022-08-27T11:59:31.882Z,13.63
2022-08-27T12:01:28.340Z,20.05
2022-08-27T12:03:20.513Z,14.65
2022-08-27T12:05:07.384Z,17.60
2022-08-27T12:07:00.457Z,18.30
2022-08-27T12:10:39.092Z,19.17
2022-08-27T12:12:46.484Z,12.55
2022-08-27T12:14:53.580Z,14.77
2022-08-27T12:30:34.712Z,11.15
2022-08-27T12:32:32.651Z,13.65
2022-08-27T12:34:04.974Z,13.35
2022-08-27T12:35:52.517Z,19.00
2022-08-27T12:37:34.820Z,11.68
2022-08-27T12:39:18.175Z,17.20
2022-08-27T12:41:00.260Z,17.25
2022-08-27T12:42:32.763Z,15.35
2022-08-27T12:44:13.226Z,18.05
2022-08-27T12:46:01.598Z,16.17
2022-08-27T12:47:44.749Z,16.13
2022-08-27T12:49:38.583Z,12.40
2022-08-27T12:51:26.554Z,17.95
2022-08-27T12:53:18.315Z,17.92
2022-08-27T12:55:05.661Z,19.92
2022-08-27T12:56:56.410Z,19.75
2022-08-27T12:58:55.178Z,17.08
2022-08-27T13:00:47.254Z,19.10
2022-08-27T13:03:03.742Z,20.40
2022-08-27T13:04:41.087Z,20.75
2022-08-27T13:06:33.223Z,17.98
2022-08-27T13:08:05.984Z,26.95
2022-08-27T13:09:39.819Z,14.60
2022-08-27T13:11:29.643Z,19.90
2022-08-27T13:13:12.574Z,17.90
2022-08-27T13:14:48.956Z,21.30
2022-08-27T13:16:30.328Z,15.65
2022-08-27T13:18:07.732Z,19.10
2022-08-27T13:19:51.010Z,18.95
2022-08-27T13:21:28.814Z,18.75
2022-08-27T13:23:01.209Z,15.35
2022-08-27T13:24:44.363Z,18.40
2022-08-27T13:26:23.662Z,21.35
2022-08-27T13:28:08.463Z,17.33
2022-08-27T13:29:43.787Z,13.25
2022-08-27T13:31:20.232Z,19.27
2022-08-27T13:32:52.776Z,16.73
2022-08-27T13:34:40.331Z,20.15
2022-08-27T13:36:13.322Z,18.98
2022-08-27T13:37:53.549Z,19.38
2022-08-27T13:39:28.297Z,21.52
2022-08-27T13:41:10.108Z,17.73
2022-08-27T13:42:45.204Z,14.88
2022-08-27T13:44:40.177Z,22.85
2022-08-27T13:46:21.104Z,17.92
2022-08-27T13:47:54.727Z,14.18
2022-08-27T13:49:32.060Z,18.98
2022-08-27T13:51:07.010Z,30.88
2022-08-27T13:53:01.373Z,20.50
2022-08-27T13:54:35.388Z,13.90
2022-08-27T13:56:08.030Z,16.83
2022-08-27T13:57:51.905Z,16.45
2022-08-27T13:59:30.474Z,17.23
2022-08-27T14:01:28.829Z,14.40
2022-08-27T14:03:02.395Z,23.25
2022-08-27T14:04:42.421Z,16.45
2022-08-27T14:06:45.340Z,15.50
2022-08-27T14:08:20.116Z,17.30
2022-08-27T14:10:17.842Z,18.45
2022-08-27T14:12:08.343Z,21.85
2022-08-27T14:13:47.655Z,24.83
2022-08-27T14:15:40.428Z,14.35
2022-08-27T14:17:35.040Z,12.70
2022-08-27T14:19:36.094Z,16.65
2022-08-27T14:21:09.232Z,15.57
2022-08-27T14:22:42.546Z,28.15
2022-08-27T14:24:15.218Z,18.92
2022-08-27T14:25:48.606Z,18.38
2022-08-27T14:27:21.169Z,18.98
2022-08-27T14:28:55.100Z,10.95
2022-08-27T14:30:30.021Z,17.15
2022-08-27T14:32:02.744Z,18.35
2022-08-27T14:33:35.250Z,17.88
2022-08-27T14:35:10.782Z,15.65
2022-08-27T14:36:43.916Z,17.45
2022-08-27T14:38:21.539Z,16.40
2022-08-27T14:39:54.125Z,22.65
2022-08-27T14:41:27.187Z,16.33
2022-08-27T14:43:00.251Z,20.70
2022-08-27T14:44:32.436Z,14.52
2022-08-27T14:46:07.746Z,15.75
2022-08-27T14:47:43.794Z,23.42
2022-08-27T14:49:27.791Z,21.70
2022-08-27T14:51:09.528Z,21.77
2022-08-27T14:52:41.815Z,17.77
2022-08-27T14:54:14.118Z,13.80
2022-08-27T14:55:51.623Z,19.58
2022-08-27T14:57:24.417Z,14.00
2022-08-27T14:58:57.882Z,12.10
2022-08-27T15:00:30.925Z,17.42
2022-08-27T15:02:11.041Z,14.48
2022-08-27T15:03:49.451Z,18.17
2022-08-27T15:05:24.842Z,21.77
2022-08-27T15:06:57.677Z,22.45
2022-08-27T15:08:32.165Z,14.68
2022-08-27T15:10:06.262Z,16.55
2022-08-27T15:11:39.881Z,17.70
2022-08-27T15:13:12.465Z,34.50
2022-08-27T15:14:45.131Z,31.95
2022-08-27T15:16:29.353Z,21.65
2022-08-27T15:18:01.627Z,20.85
2022-08-27T15:19:34.615Z,16.75
2022-08-27T15:21:07.298Z,15.65
2022-08-27T15:22:44.196Z,14.77
2022-08-27T15:24:25.155Z,17.65
2022-08-27T15:25:57.390Z,22.77
2022-08-27T15:27:38.065Z,20.17
2022-08-27T15:29:12.402Z,18.15
2022-08-27T15:30:44.839Z,23.23
2022-08-27T15:32:33.381Z,16.95
2022-08-27T15:34:06.601Z,20.90
2022-08-27T15:35:38.914Z,18.35
2022-08-27T15:37:11.389Z,15.38
2022-08-27T15:38:43.622Z,14.38
2022-08-27T15:40:19.755Z,14.93
2022-08-27T15:42:08.112Z,14.10
2022-08-27T15:43:40.614Z,18.83
2022-08-27T15:45:14.521Z,21.20
2022-08-27T15:46:47.211Z,14.77
2022-08-27T15:48:19.618Z,19.08
2022-08-27T15:49:52.121Z,14.10
2022-08-27T15:51:33.183Z,18.25
2022-08-27T15:53:08.855Z,23.50
2022-08-27T15:54:41.126Z,20.38
2022-08-27T15:56:13.319Z,21.42
2022-08-27T15:57:46.375Z,14.13
2022-08-27T15:59:18.899Z,20.48
2022-08-27T16:00:54.618Z,16.63
2022-08-27T16:02:34.523Z,21.45
2022-08-27T16:04:07.819Z,16.65
2022-08-27T16:05:44.744Z,21.20
2022-08-27T16:07:21.216Z,18.90
2022-08-27T16:08:54.664Z,20.00
2022-08-27T16:10:27.851Z,17.73
2022-08-27T16:12:01.163Z,16.45
2022-08-27T16:13:33.552Z,18.67
2022-08-27T16:15:07.803Z,15.35
2022-08-27T16:16:40.505Z,30.63
2022-08-27T16:18:13.688Z,20.92
2022-08-27T16:19:46.045Z,25.98
2022-08-27T16:21:18.472Z,26.80
2022-08-27T16:22:50.907Z,20.63
2022-08-27T16:24:23.426Z,19.88
2022-08-27T16:25:56.696Z,31.83
2022-08-27T16:27:28.986Z,26.42
2022-08-27T16:29:02.552Z,23.05
2022-08-27T16:30:35.543Z,34.20
2022-08-27T16:32:16.686Z,23.27
2022-08-27T16:33:51.024Z,21.88
2022-08-27T16:35:23.806Z,21.25
2022-08-27T16:36:56.478Z,21.40
2022-08-27T16:38:28.787Z,24.42
2022-08-27T16:40:01.056Z,21.30
2022-08-27T16:41:33.397Z,20.20
2022-08-27T16:43:06.607Z,21.02
2022-08-27T16:44:39.666Z,15.48
2022-08-27T16:46:11.894Z,17.63
2022-08-27T16:48:03.614Z,25.23
2022-08-27T16:49:54.909Z,19.75
2022-08-27T16:51:34.640Z,25.90
2022-08-27T16:53:18.319Z,23.67
2022-08-27T16:54:52.051Z,29.38
2022-08-27T16:56:26.249Z,25.70
2022-08-27T16:58:01.324Z,25.83
2022-08-27T16:59:34.034Z,30.17
2022-08-27T17:01:10.616Z,31.92
2022-08-27T17:02:44.029Z,31.10
2022-08-27T17:04:27.916Z,34.03
2022-08-27T17:06:02.220Z,38.10
2022-08-27T17:07:35.428Z,31.10
2022-08-27T17:09:08.204Z,34.40
2022-08-27T17:10:46.413Z,29.20
2022-08-27T17:12:22.128Z,26.63
2022-08-27T17:14:02.374Z,26.02
2022-08-27T17:15:34.972Z,33.20
2022-08-27T17:17:09.473Z,27.52
2022-08-27T17:18:42.308Z,29.20
2022-08-27T17:20:15.459Z,30.95
2022-08-27T17:21:48.510Z,29.42
2022-08-27T17:23:30.766Z,28.10
2022-08-27T17:25:03.486Z,34.45
2022-08-27T17:26:36.461Z,29.23
2022-08-27T17:28:11.480Z,23.48
2022-08-27T17:29:44.044Z,24.88
2022-08-27T17:31:37.687Z,29.77
2022-08-27T17:33:27.846Z,25.90
2022-08-27T17:35:05.077Z,30.30
2022-08-27T17:36:38.851Z,24.30
2022-08-27T17:38:11.552Z,30.75
2022-08-27T17:39:44.049Z,27.27
2022-08-27T17:41:25.573Z,17.83
2022-08-27T17:42:58.533Z,23.65
2022-08-27T17:44:36.584Z,19.92
2022-08-27T17:46:10.052Z,20.20
2022-08-27T17:47:42.536Z,20.42
2022-08-27T17:49:15.157Z,21.52
2022-08-27T17:50:47.971Z,38.10
2022-08-27T17:52:20.439Z,27.58
2022-08-27T17:54:00.607Z,20.48
2022-08-27T17:55:34.038Z,33.28
2022-08-27T17:57:40.586Z,26.80
2022-08-27T17:59:13.657Z,24.35
2022-08-27T18:00:47.315Z,25.85
2022-08-27T18:02:47.445Z,23.80
2022-08-27T18:04:20.539Z,23.50
2022-08-27T18:05:52.995Z,29.17
2022-08-27T18:07:25.833Z,25.20
2022-08-27T18:08:58.496Z,23.85
2022-08-27T18:10:32.555Z,29.20
2022-08-27T18:12:06.132Z,22.45
2022-08-27T18:13:39.746Z,24.83
2022-08-27T18:15:26.745Z,21.88
2022-08-27T18:16:58.983Z,22.33
2022-08-27T18:18:34.033Z,31.27
2022-08-27T18:20:09.552Z,24.20
2022-08-27T18:21:46.280Z,22.65
2022-08-27T18:23:19.224Z,19.60
2022-08-27T18:24:51.372Z,24.20
2022-08-27T18:26:28.553Z,25.95
2022-08-27T18:28:06.720Z,24.10
2022-08-27T18:29:38.871Z,21.63
2022-08-27T18:31:13.937Z,31.75
2022-08-27T18:32:46.912Z,34.72
2022-08-27T18:34:21.017Z,28.00
2022-08-27T18:35:53.368Z,21.23
2022-08-27T18:37:25.719Z,30.17
2022-08-27T18:38:58.270Z,33.42
2022-08-27T18:40:38.343Z,27.10
2022-08-27T18:42:12.498Z,28.83
2022-08-27T18:43:45.427Z,26.08
2022-08-27T18:45:23.235Z,28.40
2022-08-27T18:46:55.392Z,20.85
2022-08-27T18:48:28.111Z,23.35
2022-08-27T18:50:00.292Z,18.63
2022-08-27T18:51:35.627Z,24.90
2022-08-27T18:53:08.831Z,23.17
2022-08-27T18:54:43.007Z,24.88
2022-08-27T18:56:20.649Z,22.73
2022-08-27T18:57:54.686Z,34.03
2022-08-27T18:59:27.363Z,24.08
2022-08-27T19:01:03.010Z,23.85
2022-08-27T19:02:36.998Z,28.55
2022-08-27T19:04:10.427Z,21.50
2022-08-27T19:05:43.255Z,21.48
2022-08-27T19:07:15.833Z,26.83
2022-08-27T19:08:50.565Z,25.60
2022-08-27T19:10:23.970Z,24.67
2022-08-27T19:11:56.361Z,20.50
2022-08-27T19:13:28.934Z,19.85
2022-08-27T19:15:01.107Z,24.02
2022-08-27T19:16:43.606Z,18.90
2022-08-27T19:18:15.954Z,32.40
2022-08-27T19:19:50.554Z,22.60
2022-08-27T19:21:23.025Z,23.88
2022-08-27T19:22:55.936Z,24.27
2022-08-27T19:24:28.988Z,20.48
2022-08-27T19:26:02.826Z,22.92
2022-08-27T19:27:36.732Z,26.10
2022-08-27T19:29:09.507Z,17.15
2022-08-27T19:30:42.790Z,25.33
2022-08-27T19:32:15.681Z,28.52
2022-08-27T19:33:48.751Z,25.63
2022-08-27T19:35:21.340Z,23.67
2022-08-27T19:36:53.708Z,27.13
2022-08-27T19:38:31.667Z,23.95
2022-08-27T19:40:05.614Z,26.20
2022-08-27T19:41:38.547Z,21.70
2022-08-27T19:43:11.881Z,25.95
2022-08-27T19:44:45.297Z,23.08
2022-08-27T19:46:21.048Z,22.67
2022-08-27T19:47:54.265Z,27.63
2022-08-27T19:49:26.935Z,27.42
2022-08-27T19:50:59.264Z,23.67
2022-08-27T19:52:31.515Z,23.70
2022-08-27T19:54:04.419Z,38.53
2022-08-27T19:55:36.991Z,31.30
2022-08-27T19:57:09.908Z,26.42
2022-08-27T19:58:43.141Z,33.80
2022-08-27T20:00:19.165Z,46.35
2022-08-27T20:01:52.799Z,28.23
2022-08-27T20:03:25.833Z,35.55
2022-08-27T20:05:17.037Z,20.65
2022-08-27T20:06:50.483Z,26.27
2022-08-27T20:08:23.075Z,23.95
2022-08-27T20:09:55.327Z,16.83
2022-08-27T20:11:27.854Z,23.13
2022-08-27T20:13:00.614Z,27.50
2022-08-27T20:14:32.821Z,27.67
2022-08-27T20:16:09.072Z,24.33
2022-08-27T20:17:45.919Z,24.15
2022-08-27T20:19:24.040Z,22.23
2022-08-27T20:20:56.352Z,26.75
2022-08-27T20:22:28.583Z,20.00
2022-08-27T20:24:01.275Z,25.48
2022-08-27T20:25:35.941Z,27.60
2022-08-27T20:27:09.318Z,24.60
2022-08-27T20:28:42.087Z,24.75
2022-08-27T20:30:17.501Z,26.17
2022-08-27T20:31:50.858Z,24.88
2022-08-27T20:33:23.041Z,22.52
2022-08-27T20:34:55.232Z,34.00
2022-08-27T20:36:31.813Z,25.75
2022-08-27T20:38:06.115Z,26.60
2022-08-27T20:39:38.854Z,33.20
2022-08-27T20:41:11.155Z,29.60
2022-08-27T20:42:44.565Z,23.00
2022-08-27T20:44:17.629Z,29.63
2022-08-27T20:45:50.211Z,22.45
2022-08-27T20:47:25.879Z,18.48
2022-08-27T20:48:58.614Z,26.73
2022-08-27T20:50:31.191Z,30.77
2022-08-27T20:52:06.681Z,26.20
2022-08-27T20:53:40.881Z,24.95
2022-08-27T20:55:17.335Z,20.10
2022-08-27T20:56:52.290Z,28.02
2022-08-27T20:58:44.866Z,21.63
2022-08-27T21:00:20.125Z,25.25
2022-08-27T21:01:52.834Z,26.13
2022-08-27T21:03:25.544Z,27.20
2022-08-27T21:04:58.217Z,29.50
2022-08-27T21:06:33.402Z,30.00
2022-08-27T21:08:07.385Z,27.73
2022-08-27T21:09:56.225Z,26.80
2022-08-27T21:11:29.684Z,27.42
2022-08-27T21:13:04.752Z,25.50
2022-08-27T21:14:38.320Z,28.45
2022-08-27T21:16:10.744Z,21.80
2022-08-27T21:17:43.632Z,24.75
2022-08-27T21:19:15.943Z,31.35
2022-08-27T21:20:48.619Z,21.70
2022-08-27T21:22:23.131Z,24.20
2022-08-27T21:23:55.440Z,23.92
2022-08-27T21:25:28.256Z,24.42
2022-08-27T21:27:00.835Z,22.80
2022-08-27T21:28:33.543Z,23.48
2022-08-27T21:30:07.549Z,25.02
2022-08-27T21:31:39.749Z,25.42
2022-08-27T21:33:12.186Z,27.67
2022-08-27T21:34:45.240Z,24.65
2022-08-27T21:36:17.681Z,21.10
2022-08-27T21:37:50.225Z,29.02
2022-08-27T21:39:22.620Z,25.55
2022-08-27T21:40:55.071Z,29.25
2022-08-27T21:42:27.571Z,46.53
2022-08-27T21:44:00.291Z,60.42
2022-08-27T21:45:32.834Z,38.40
2022-08-27T21:47:06.204Z,46.72
2022-08-27T21:48:39.493Z,48.55
2022-08-27T21:50:12.271Z,45.42
2022-08-27T21:51:44.644Z,35.22
2022-08-27T21:53:18.118Z,47.60
2022-08-27T21:54:50.396Z,46.80
2022-08-27T21:56:22.706Z,45.75
2022-08-27T21:57:55.184Z,41.85
2022-08-27T21:59:27.543Z,33.13
2022-08-27T22:01:02.090Z,45.22
2022-08-27T22:02:40.118Z,33.10
2022-08-27T22:04:13.337Z,40.13
2022-08-27T22:05:46.474Z,29.67
2022-08-27T22:07:19.367Z,32.40
2022-08-27T22:08:51.842Z,35.00
2022-08-27T22:10:24.633Z,32.13
2022-08-27T22:11:57.154Z,40.97
2022-08-27T22:13:30.100Z,36.35
2022-08-27T22:15:04.329Z,26.55
2022-08-27T22:16:36.805Z,29.27
2022-08-27T22:18:09.458Z,25.45
2022-08-27T22:19:42.392Z,36.08
2022-08-27T22:21:14.644Z,27.35
2022-08-27T22:22:48.585Z,32.10
2022-08-27T22:24:20.767Z,30.08
2022-08-27T22:25:52.955Z,26.33
2022-08-27T22:27:26.820Z,24.17
2022-08-27T22:28:59.477Z,25.63
2022-08-27T22:30:32.026Z,25.80
2022-08-27T22:32:07.690Z,29.42
2022-08-27T22:33:40.259Z,31.10
2022-08-27T22:35:14.837Z,27.30
2022-08-27T22:36:49.690Z,24.60
2022-08-27T22:38:21.975Z,25.15
2022-08-27T22:39:55.978Z,23.58
2022-08-27T22:41:28.355Z,31.88
2022-08-27T22:43:05.875Z,19.08
2022-08-27T22:44:40.395Z,23.63
2022-08-27T22:46:12.928Z,28.42
2022-08-27T22:47:46.142Z,27.63
2022-08-27T22:49:18.874Z,24.98
2022-08-27T22:50:51.102Z,22.80
2022-08-27T22:52:25.862Z,26.88
2022-08-27T22:54:00.780Z,25.45
2022-08-27T22:55:33.395Z,25.20
2022-08-27T22:57:05.923Z,29.67
2022-08-27T22:58:43.990Z,25.67
2022-08-27T23:00:39.648Z,25.60
2022-08-27T23:02:12.279Z,27.67
2022-08-27T23:03:44.705Z,25.97
2022-08-27T23:05:17.809Z,28.10
2022-08-27T23:06:51.900Z,27.15
2022-08-27T23:08:24.379Z,20.67
2022-08-27T23:09:56.841Z,30.43
2022-08-27T23:11:31.649Z,22.73
2022-08-27T23:13:06.024Z,21.75
2022-08-27T23:14:38.355Z,22.00
2022-08-27T23:16:11.879Z,21.40
2022-08-27T23:17:45.301Z,19.08
2022-08-27T23:19:19.147Z,26.40
2022-08-27T23:20:51.486Z,18.60
2022-08-27T23:22:23.852Z,20.73
2022-08-27T23:23:56.019Z,17.97
2022-08-27T23:25:47.446Z,22.13
2022-08-27T23:27:28.933Z,16.50
2022-08-27T23:29:01.129Z,16.88
2022-08-27T23:30:34.796Z,16.83
2022-08-27T23:32:07.007Z,20.67
2022-08-27T23:33:39.834Z,16.38
2022-08-27T23:35:14.694Z,16.83
2022-08-27T23:36:48.423Z,15.33
2022-08-27T23:38:21.975Z,16.57
2022-08-27T23:39:54.965Z,17.97
2022-08-27T23:41:27.445Z,13.83
2022-08-27T23:43:00.075Z,14.20
2022-08-27T23:44:32.886Z,19.00
2022-08-27T23:46:05.405Z,19.30
2022-08-27T23:47:37.942Z,11.43
2022-08-27T23:49:10.396Z,12.77
2022-08-27T23:50:44.261Z,16.07
2022-08-27T23:52:16.451Z,12.93
2022-08-27T23:53:48.845Z,13.70
2022-08-27T23:55:21.226Z,12.17
2022-08-27T23:56:53.359Z,14.35
2022-08-27T23:58:26.871Z,12.63
2022-08-27T23:59:59.500Z,18.10
